sensor_id;sensor_type;location;lat;lon;timestamp;pressure;altitude;pressure_sealevel;temperature;humidity
18819;BME280;9537;45.594;9.294;2023-05-07T00:00:03;99616.63;;;19.55;72.64
18819;BME280;9537;45.594;9.294;2023-05-07T00:01:08;99608.94;;;19.58;72.40
18819;BME280;9537;45.594;9.294;2023-05-07T00:02:09;99613.72;;;19.56;72.52
18819;BME280;9537;45.594;9.294;2023-05-07T00:03:11;99609.88;;;19.52;72.90
18819;BME280;9537;45.594;9.294;2023-05-07T00:04:14;99614.97;;;19.54;72.96
18819;BME280;9537;45.594;9.294;2023-05-07T00:05:16;99606.72;;;19.55;72.69
18819;BME280;9537;45.594;9.294;2023-05-07T00:06:17;99614.31;;;19.58;72.66
18819;BME280;9537;45.594;9.294;2023-05-07T00:07:20;99617.44;;;19.55;72.73
18819;BME280;9537;45.594;9.294;2023-05-07T00:08:21;99619.88;;;19.57;72.69
18819;BME280;9537;45.594;9.294;2023-05-07T00:09:23;99616.16;;;19.58;72.78
18819;BME280;9537;45.594;9.294;2023-05-07T00:10:26;99617.19;;;19.57;72.85
18819;BME280;9537;45.594;9.294;2023-05-07T00:11:28;99609.41;;;19.55;72.98
18819;BME280;9537;45.594;9.294;2023-05-07T00:12:29;99623.03;;;19.54;72.98
18819;BME280;9537;45.594;9.294;2023-05-07T00:13:32;99620.94;;;19.56;72.78
18819;BME280;9537;45.594;9.294;2023-05-07T00:14:36;99623.50;;;19.51;73.24
18819;BME280;9537;45.594;9.294;2023-05-07T00:15:38;99620.34;;;19.54;72.89
18819;BME280;9537;45.594;9.294;2023-05-07T00:16:39;99626.28;;;19.56;73.03
18819;BME280;9537;45.594;9.294;2023-05-07T00:17:41;99625.22;;;19.57;72.82
18819;BME280;9537;45.594;9.294;2023-05-07T00:18:42;99625.81;;;19.59;72.81
18819;BME280;9537;45.594;9.294;2023-05-07T00:19:44;99630.13;;;19.60;72.89
18819;BME280;9537;45.594;9.294;2023-05-07T00:20:45;99629.91;;;19.62;72.78
18819;BME280;9537;45.594;9.294;2023-05-07T00:21:48;99628.03;;;19.62;73.02
18819;BME280;9537;45.594;9.294;2023-05-07T00:22:49;99635.03;;;19.63;72.97
18819;BME280;9537;45.594;9.294;2023-05-07T00:23:51;99640.41;;;19.63;73.30
18819;BME280;9537;45.594;9.294;2023-05-07T00:24:52;99637.28;;;19.66;73.13
18819;BME280;9537;45.594;9.294;2023-05-07T00:25:56;99640.53;;;19.68;72.98
18819;BME280;9537;45.594;9.294;2023-05-07T00:26:57;99641.38;;;19.69;72.83
18819;BME280;9537;45.594;9.294;2023-05-07T00:27:59;99650.09;;;19.76;72.64
18819;BME280;9537;45.594;9.294;2023-05-07T00:29:04;99651.84;;;19.82;71.27
18819;BME280;9537;45.594;9.294;2023-05-07T00:30:07;99645.66;;;19.82;70.72
18819;BME280;9537;45.594;9.294;2023-05-07T00:31:09;99654.31;;;19.84;70.48
18819;BME280;9537;45.594;9.294;2023-05-07T00:32:11;99649.50;;;19.86;70.27
18819;BME280;9537;45.594;9.294;2023-05-07T00:33:12;99655.78;;;19.91;69.39
18819;BME280;9537;45.594;9.294;2023-05-07T00:34:14;99652.09;;;19.92;68.99
18819;BME280;9537;45.594;9.294;2023-05-07T00:35:15;99651.94;;;19.99;68.12
18819;BME280;9537;45.594;9.294;2023-05-07T00:36:17;99656.03;;;20.01;67.90
18819;BME280;9537;45.594;9.294;2023-05-07T00:37:18;99662.19;;;20.02;67.18
18819;BME280;9537;45.594;9.294;2023-05-07T00:38:20;99662.78;;;20.04;66.96
18819;BME280;9537;45.594;9.294;2023-05-07T00:39:21;99663.59;;;20.05;66.83
18819;BME280;9537;45.594;9.294;2023-05-07T00:40:24;99666.28;;;20.05;66.99
18819;BME280;9537;45.594;9.294;2023-05-07T00:41:28;99661.72;;;20.05;67.09
18819;BME280;9537;45.594;9.294;2023-05-07T00:42:31;99667.09;;;20.05;67.06
18819;BME280;9537;45.594;9.294;2023-05-07T00:43:33;99668.75;;;20.06;67.24
18819;BME280;9537;45.594;9.294;2023-05-07T00:44:35;99673.25;;;20.06;67.81
18819;BME280;9537;45.594;9.294;2023-05-07T00:45:36;99668.97;;;20.05;68.58
18819;BME280;9537;45.594;9.294;2023-05-07T00:46:38;99670.59;;;20.06;68.73
18819;BME280;9537;45.594;9.294;2023-05-07T00:47:39;99672.47;;;20.05;68.74
18819;BME280;9537;45.594;9.294;2023-05-07T00:48:42;99673.03;;;20.07;68.76
18819;BME280;9537;45.594;9.294;2023-05-07T00:49:44;99671.16;;;20.08;67.92
18819;BME280;9537;45.594;9.294;2023-05-07T00:50:47;99672.56;;;20.10;67.04
18819;BME280;9537;45.594;9.294;2023-05-07T00:51:49;99676.88;;;20.11;66.89
18819;BME280;9537;45.594;9.294;2023-05-07T00:52:53;99675.03;;;20.12;66.65
18819;BME280;9537;45.594;9.294;2023-05-07T00:53:54;99677.81;;;20.17;66.35
18819;BME280;9537;45.594;9.294;2023-05-07T00:54:56;99682.47;;;20.21;65.87
18819;BME280;9537;45.594;9.294;2023-05-07T00:55:58;99675.25;;;20.22;64.69
18819;BME280;9537;45.594;9.294;2023-05-07T00:57:03;99671.28;;;20.24;64.29
18819;BME280;9537;45.594;9.294;2023-05-07T00:58:04;99675.81;;;20.24;64.59
18819;BME280;9537;45.594;9.294;2023-05-07T00:59:06;99674.53;;;20.27;64.58
18819;BME280;9537;45.594;9.294;2023-05-07T01:00:08;99685.38;;;20.32;64.43
18819;BME280;9537;45.594;9.294;2023-05-07T01:01:12;99682.44;;;20.33;63.98
18819;BME280;9537;45.594;9.294;2023-05-07T01:02:13;99673.59;;;20.33;63.23
18819;BME280;9537;45.594;9.294;2023-05-07T01:03:15;99669.03;;;20.33;63.14
18819;BME280;9537;45.594;9.294;2023-05-07T01:04:16;99674.66;;;20.32;63.38
18819;BME280;9537;45.594;9.294;2023-05-07T01:05:19;99683.25;;;20.34;63.13
18819;BME280;9537;45.594;9.294;2023-05-07T01:06:23;99674.75;;;20.37;62.58
18819;BME280;9537;45.594;9.294;2023-05-07T01:07:28;99674.75;;;20.37;62.19
18819;BME280;9537;45.594;9.294;2023-05-07T01:08:30;99674.19;;;20.35;62.01
18819;BME280;9537;45.594;9.294;2023-05-07T01:09:36;99669.84;;;20.34;62.20
18819;BME280;9537;45.594;9.294;2023-05-07T01:10:38;99666.13;;;20.35;61.61
18819;BME280;9537;45.594;9.294;2023-05-07T01:11:43;99664.38;;;20.29;61.54
18819;BME280;9537;45.594;9.294;2023-05-07T01:12:47;99676.75;;;20.30;61.59
18819;BME280;9537;45.594;9.294;2023-05-07T01:13:50;99664.97;;;20.31;61.62
18819;BME280;9537;45.594;9.294;2023-05-07T01:14:51;99672.53;;;20.34;61.56
18819;BME280;9537;45.594;9.294;2023-05-07T01:15:53;99668.72;;;20.30;61.36
18819;BME280;9537;45.594;9.294;2023-05-07T01:16:55;99671.59;;;20.28;61.23
18819;BME280;9537;45.594;9.294;2023-05-07T01:17:57;99672.09;;;20.25;61.09
18819;BME280;9537;45.594;9.294;2023-05-07T01:18:58;99671.50;;;20.23;61.09
18819;BME280;9537;45.594;9.294;2023-05-07T01:20:00;99673.97;;;20.24;61.42
18819;BME280;9537;45.594;9.294;2023-05-07T01:21:04;99669.66;;;20.23;61.33
18819;BME280;9537;45.594;9.294;2023-05-07T01:22:08;99668.72;;;20.18;61.36
18819;BME280;9537;45.594;9.294;2023-05-07T01:23:11;99670.94;;;20.21;61.23
18819;BME280;9537;45.594;9.294;2023-05-07T01:24:14;99663.69;;;20.21;61.20
18819;BME280;9537;45.594;9.294;2023-05-07T01:25:15;99675.00;;;20.23;61.59
18819;BME280;9537;45.594;9.294;2023-05-07T01:26:17;99667.78;;;20.24;61.31
18819;BME280;9537;45.594;9.294;2023-05-07T01:27:20;99673.38;;;20.22;61.00
18819;BME280;9537;45.594;9.294;2023-05-07T01:28:22;99675.56;;;20.25;60.97
18819;BME280;9537;45.594;9.294;2023-05-07T01:29:23;99669.41;;;20.25;61.31
18819;BME280;9537;45.594;9.294;2023-05-07T01:30:26;99665.09;;;20.24;61.24
18819;BME280;9537;45.594;9.294;2023-05-07T01:31:29;99666.97;;;20.23;61.12
18819;BME280;9537;45.594;9.294;2023-05-07T01:32:35;99666.97;;;20.23;61.40
18819;BME280;9537;45.594;9.294;2023-05-07T01:33:40;99669.41;;;20.25;61.35
18819;BME280;9537;45.594;9.294;2023-05-07T01:34:45;99667.53;;;20.25;61.00
18819;BME280;9537;45.594;9.294;2023-05-07T01:35:49;99664.75;;;20.20;61.18
18819;BME280;9537;45.594;9.294;2023-05-07T01:36:52;99666.03;;;20.18;61.37
18819;BME280;9537;45.594;9.294;2023-05-07T01:37:54;99675.13;;;20.17;61.53
18819;BME280;9537;45.594;9.294;2023-05-07T01:38:58;99666.53;;;20.15;61.67
18819;BME280;9537;45.594;9.294;2023-05-07T01:40:01;99669.75;;;20.17;61.87
18819;BME280;9537;45.594;9.294;2023-05-07T01:41:03;99669.53;;;20.18;61.44
18819;BME280;9537;45.594;9.294;2023-05-07T01:42:05;99671.16;;;20.19;61.37
18819;BME280;9537;45.594;9.294;2023-05-07T01:43:08;99664.03;;;20.25;61.04
18819;BME280;9537;45.594;9.294;2023-05-07T01:44:10;99672.34;;;20.23;61.18
18819;BME280;9537;45.594;9.294;2023-05-07T01:45:14;99673.72;;;20.26;60.96
18819;BME280;9537;45.594;9.294;2023-05-07T01:46:15;99675.25;;;20.22;60.98
18819;BME280;9537;45.594;9.294;2023-05-07T01:47:20;99672.09;;;20.25;60.83
18819;BME280;9537;45.594;9.294;2023-05-07T01:48:21;99675.00;;;20.23;60.51
18819;BME280;9537;45.594;9.294;2023-05-07T01:49:23;99674.19;;;20.23;60.52
18819;BME280;9537;45.594;9.294;2023-05-07T01:50:25;99676.31;;;20.21;60.36
18819;BME280;9537;45.594;9.294;2023-05-07T01:51:27;99672.22;;;20.18;60.75
18819;BME280;9537;45.594;9.294;2023-05-07T01:52:29;99673.28;;;20.17;60.96
18819;BME280;9537;45.594;9.294;2023-05-07T01:53:35;99668.47;;;20.19;61.24
18819;BME280;9537;45.594;9.294;2023-05-07T01:54:40;99669.75;;;20.17;61.20
18819;BME280;9537;45.594;9.294;2023-05-07T01:55:43;99664.66;;;20.15;60.97
18819;BME280;9537;45.594;9.294;2023-05-07T01:56:44;99667.31;;;20.15;61.26
18819;BME280;9537;45.594;9.294;2023-05-07T01:57:48;99676.06;;;20.11;61.25
18819;BME280;9537;45.594;9.294;2023-05-07T01:58:50;99673.16;;;20.12;61.15
18819;BME280;9537;45.594;9.294;2023-05-07T01:59:53;99674.19;;;20.11;61.14
18819;BME280;9537;45.594;9.294;2023-05-07T02:00:54;99671.50;;;20.11;61.20
18819;BME280;9537;45.594;9.294;2023-05-07T02:01:56;99676.06;;;20.11;61.15
18819;BME280;9537;45.594;9.294;2023-05-07T02:02:57;99677.34;;;20.08;61.22
18819;BME280;9537;45.594;9.294;2023-05-07T02:04:00;99683.19;;;20.05;61.36
18819;BME280;9537;45.594;9.294;2023-05-07T02:05:01;99678.88;;;20.04;61.73
18819;BME280;9537;45.594;9.294;2023-05-07T02:06:03;99685.06;;;20.05;61.60
18819;BME280;9537;45.594;9.294;2023-05-07T02:07:05;99689.59;;;20.04;61.81
18819;BME280;9537;45.594;9.294;2023-05-07T02:08:07;99695.31;;;20.08;61.06
18819;BME280;9537;45.594;9.294;2023-05-07T02:09:09;99701.25;;;20.10;60.30
18819;BME280;9537;45.594;9.294;2023-05-07T02:10:13;99718.50;;;20.14;60.61
18819;BME280;9537;45.594;9.294;2023-05-07T02:11:14;99716.53;;;20.09;61.38
18819;BME280;9537;45.594;9.294;2023-05-07T02:12:16;99716.53;;;20.09;61.59
18819;BME280;9537;45.594;9.294;2023-05-07T02:13:17;99719.69;;;20.06;62.16
18819;BME280;9537;45.594;9.294;2023-05-07T02:14:20;99723.41;;;20.05;62.55
18819;BME280;9537;45.594;9.294;2023-05-07T02:15:21;99723.41;;;20.05;62.46
18819;BME280;9537;45.594;9.294;2023-05-07T02:16:23;99724.91;;;20.01;62.81
18819;BME280;9537;45.594;9.294;2023-05-07T02:17:24;99725.72;;;20.01;62.86
18819;BME280;9537;45.594;9.294;2023-05-07T02:18:27;99730.88;;;20.03;63.18
18819;BME280;9537;45.594;9.294;2023-05-07T02:19:29;99730.38;;;19.94;63.62
18819;BME280;9537;45.594;9.294;2023-05-07T02:20:30;99730.50;;;19.88;64.00
18819;BME280;9537;45.594;9.294;2023-05-07T02:21:32;99734.31;;;19.80;64.21
18819;BME280;9537;45.594;9.294;2023-05-07T02:22:33;99734.31;;;19.80;64.45
18819;BME280;9537;45.594;9.294;2023-05-07T02:23:36;99731.75;;;19.73;64.70
18819;BME280;9537;45.594;9.294;2023-05-07T02:24:37;99730.13;;;19.72;64.59
18819;BME280;9537;45.594;9.294;2023-05-07T02:25:40;99726.88;;;19.70;64.83
18819;BME280;9537;45.594;9.294;2023-05-07T02:26:42;99721.50;;;19.70;64.87
18819;BME280;9537;45.594;9.294;2023-05-07T02:27:44;99713.25;;;19.72;65.18
18819;BME280;9537;45.594;9.294;2023-05-07T02:28:45;99715.94;;;19.72;64.89
18819;BME280;9537;45.594;9.294;2023-05-07T02:29:48;99704.38;;;19.71;64.93
18819;BME280;9537;45.594;9.294;2023-05-07T02:30:49;99704.97;;;19.73;64.87
18819;BME280;9537;45.594;9.294;2023-05-07T02:31:51;99700.66;;;19.72;64.93
18819;BME280;9537;45.594;9.294;2023-05-07T02:32:53;99692.03;;;19.70;64.70
18819;BME280;9537;45.594;9.294;2023-05-07T02:33:55;99684.00;;;19.70;64.96
18819;BME280;9537;45.594;9.294;2023-05-07T02:34:56;99680.72;;;19.68;64.91
18819;BME280;9537;45.594;9.294;2023-05-07T02:36:05;99670.69;;;19.64;65.42
18819;BME280;9537;45.594;9.294;2023-05-07T02:37:07;99664.91;;;19.67;65.80
18819;BME280;9537;45.594;9.294;2023-05-07T02:38:09;99657.44;;;19.69;65.87
18819;BME280;9537;45.594;9.294;2023-05-07T02:39:11;99664.09;;;19.66;66.46
18819;BME280;9537;45.594;9.294;2023-05-07T02:40:13;99657.66;;;19.67;66.13
18819;BME280;9537;45.594;9.294;2023-05-07T02:41:17;99657.88;;;19.66;66.02
18819;BME280;9537;45.594;9.294;2023-05-07T02:42:19;99657.28;;;19.64;66.14
18819;BME280;9537;45.594;9.294;2023-05-07T02:43:20;99664.13;;;19.59;66.37
18819;BME280;9537;45.594;9.294;2023-05-07T02:44:22;99668.47;;;19.61;66.96
18819;BME280;9537;45.594;9.294;2023-05-07T02:45:23;99668.69;;;19.59;67.31
18819;BME280;9537;45.594;9.294;2023-05-07T02:46:26;99674.63;;;19.61;67.33
18819;BME280;9537;45.594;9.294;2023-05-07T02:47:28;99673.00;;;19.60;67.63
18819;BME280;9537;45.594;9.294;2023-05-07T02:48:29;99671.63;;;19.57;68.00
18819;BME280;9537;45.594;9.294;2023-05-07T02:49:31;99677.19;;;19.56;68.02
18819;BME280;9537;45.594;9.294;2023-05-07T02:50:32;99678.25;;;19.55;68.24
18819;BME280;9537;45.594;9.294;2023-05-07T02:51:34;99667.75;;;19.53;68.48
18819;BME280;9537;45.594;9.294;2023-05-07T02:52:35;99685.69;;;19.53;68.83
18819;BME280;9537;45.594;9.294;2023-05-07T02:53:37;99673.81;;;19.49;69.10
18819;BME280;9537;45.594;9.294;2023-05-07T02:54:38;99671.25;;;19.54;69.06
18819;BME280;9537;45.594;9.294;2023-05-07T02:55:41;99669.41;;;19.54;69.36
18819;BME280;9537;45.594;9.294;2023-05-07T02:56:43;99662.41;;;19.53;69.43
18819;BME280;9537;45.594;9.294;2023-05-07T02:57:45;99658.44;;;19.56;69.69
18819;BME280;9537;45.594;9.294;2023-05-07T02:58:46;99661.38;;;19.54;69.92
18819;BME280;9537;45.594;9.294;2023-05-07T02:59:48;99658.91;;;19.53;70.11
18819;BME280;9537;45.594;9.294;2023-05-07T03:00:49;99664.47;;;19.51;70.19
18819;BME280;9537;45.594;9.294;2023-05-07T03:01:52;99665.19;;;19.47;70.81
18819;BME280;9537;45.594;9.294;2023-05-07T03:02:53;99670.75;;;19.45;70.96
18819;BME280;9537;45.594;9.294;2023-05-07T03:03:55;99675.31;;;19.45;70.53
18819;BME280;9537;45.594;9.294;2023-05-07T03:04:56;99677.41;;;19.43;70.08
18819;BME280;9537;45.594;9.294;2023-05-07T03:05:59;99688.56;;;19.40;70.30
18819;BME280;9537;45.594;9.294;2023-05-07T03:07:00;99691.13;;;19.34;70.79
18819;BME280;9537;45.594;9.294;2023-05-07T03:08:02;99693.81;;;19.34;71.29
18819;BME280;9537;45.594;9.294;2023-05-07T03:09:04;99704.28;;;19.36;71.62
18819;BME280;9537;45.594;9.294;2023-05-07T03:10:09;99697.31;;;19.35;71.33
18819;BME280;9537;45.594;9.294;2023-05-07T03:11:10;99699.75;;;19.36;71.50
18819;BME280;9537;45.594;9.294;2023-05-07T03:12:14;99688.47;;;19.34;71.38
18819;BME280;9537;45.594;9.294;2023-05-07T03:13:15;99696.94;;;19.31;71.85
18819;BME280;9537;45.594;9.294;2023-05-07T03:14:17;99693.22;;;19.32;71.95
18819;BME280;9537;45.594;9.294;2023-05-07T03:15:18;99693.22;;;19.32;71.96
18819;BME280;9537;45.594;9.294;2023-05-07T03:16:21;99691.34;;;19.33;72.13
18819;BME280;9537;45.594;9.294;2023-05-07T03:17:22;99698.13;;;19.35;71.77
18819;BME280;9537;45.594;9.294;2023-05-07T03:18:24;99693.56;;;19.36;71.74
18819;BME280;9537;45.594;9.294;2023-05-07T03:19:25;99691.13;;;19.34;71.67
18819;BME280;9537;45.594;9.294;2023-05-07T03:20:27;99692.41;;;19.32;72.33
18819;BME280;9537;45.594;9.294;2023-05-07T03:21:28;99686.59;;;19.35;72.33
18819;BME280;9537;45.594;9.294;2023-05-07T03:22:31;99683.09;;;19.34;72.48
18819;BME280;9537;45.594;9.294;2023-05-07T03:23:32;99686.59;;;19.35;72.77
18819;BME280;9537;45.594;9.294;2023-05-07T03:24:34;99686.94;;;19.39;72.81
18819;BME280;9537;45.594;9.294;2023-05-07T03:25:35;99682.19;;;19.41;72.46
18819;BME280;9537;45.594;9.294;2023-05-07T03:26:37;99688.00;;;19.38;72.08
18819;BME280;9537;45.594;9.294;2023-05-07T03:27:40;99692.16;;;19.33;72.70
18819;BME280;9537;45.594;9.294;2023-05-07T03:28:43;99699.59;;;19.31;72.99
18819;BME280;9537;45.594;9.294;2023-05-07T03:29:44;99700.53;;;19.25;73.49
18819;BME280;9537;45.594;9.294;2023-05-07T03:30:46;99705.66;;;19.27;73.33
18819;BME280;9537;45.594;9.294;2023-05-07T03:31:47;99715.09;;;19.29;73.11
18819;BME280;9537;45.594;9.294;2023-05-07T03:32:49;99714.50;;;19.27;72.97
18819;BME280;9537;45.594;9.294;2023-05-07T03:33:54;99720.31;;;19.24;73.01
18819;BME280;9537;45.594;9.294;2023-05-07T03:34:56;99729.97;;;19.25;72.91
18819;BME280;9537;45.594;9.294;2023-05-07T03:35:57;99722.19;;;19.24;73.19
18819;BME280;9537;45.594;9.294;2023-05-07T03:37:00;99723.47;;;19.21;73.42
18819;BME280;9537;45.594;9.294;2023-05-07T03:38:02;99726.28;;;19.26;73.13
18819;BME280;9537;45.594;9.294;2023-05-07T03:39:03;99723.22;;;19.23;73.12
18819;BME280;9537;45.594;9.294;2023-05-07T03:40:08;99729.88;;;19.20;73.28
18819;BME280;9537;45.594;9.294;2023-05-07T03:41:11;99737.44;;;19.23;72.93
18819;BME280;9537;45.594;9.294;2023-05-07T03:42:14;99741.75;;;19.24;72.81
18819;BME280;9537;45.594;9.294;2023-05-07T03:43:17;99721.59;;;19.22;73.04
18819;BME280;9537;45.594;9.294;2023-05-07T03:44:19;99729.63;;;19.22;73.01
18819;BME280;9537;45.594;9.294;2023-05-07T03:45:20;99739.97;;;19.18;72.88
18819;BME280;9537;45.594;9.294;2023-05-07T03:46:22;99736.81;;;19.09;73.21
18819;BME280;9537;45.594;9.294;2023-05-07T03:47:26;99734.13;;;19.09;73.37
18819;BME280;9537;45.594;9.294;2023-05-07T03:48:28;99732.13;;;19.05;73.75
18819;BME280;9537;45.594;9.294;2023-05-07T03:49:29;99717.09;;;19.04;73.87
18819;BME280;9537;45.594;9.294;2023-05-07T03:50:32;99717.09;;;19.04;74.05
18819;BME280;9537;45.594;9.294;2023-05-07T03:51:32;99715.25;;;19.04;73.83
18819;BME280;9537;45.594;9.294;2023-05-07T03:52:36;99715.03;;;19.06;73.49
18819;BME280;9537;45.594;9.294;2023-05-07T03:53:37;99700.09;;;18.98;73.78
18819;BME280;9537;45.594;9.294;2023-05-07T03:54:39;99699.28;;;18.98;74.43
18819;BME280;9537;45.594;9.294;2023-05-07T03:55:40;99698.81;;;19.01;74.73
18819;BME280;9537;45.594;9.294;2023-05-07T03:56:42;99678.22;;;19.01;75.04
18819;BME280;9537;45.594;9.294;2023-05-07T03:57:44;99679.84;;;19.02;74.96
18819;BME280;9537;45.594;9.294;2023-05-07T03:58:47;99681.56;;;18.97;75.34
18819;BME280;9537;45.594;9.294;2023-05-07T03:59:48;99686.56;;;18.93;75.26
18819;BME280;9537;45.594;9.294;2023-05-07T04:00:50;99687.84;;;18.90;75.48
18819;BME280;9537;45.594;9.294;2023-05-07T04:01:51;99686.72;;;18.80;76.09
18819;BME280;9537;45.594;9.294;2023-05-07T04:02:53;99686.16;;;18.78;76.41
18819;BME280;9537;45.594;9.294;2023-05-07T04:03:55;99690.69;;;18.77;76.30
18819;BME280;9537;45.594;9.294;2023-05-07T04:04:57;99696.47;;;18.74;76.36
18819;BME280;9537;45.594;9.294;2023-05-07T04:05:58;99701.75;;;18.81;75.68
18819;BME280;9537;45.594;9.294;2023-05-07T04:07:01;99704.09;;;18.77;75.94
18819;BME280;9537;45.594;9.294;2023-05-07T04:08:02;99712.53;;;18.74;76.18
18819;BME280;9537;45.594;9.294;2023-05-07T04:09:04;99709.25;;;18.72;76.70
18819;BME280;9537;45.594;9.294;2023-05-07T04:10:06;99712.81;;;18.66;77.28
18819;BME280;9537;45.594;9.294;2023-05-07T04:11:08;99711.31;;;18.70;77.50
18819;BME280;9537;45.594;9.294;2023-05-07T04:12:09;99717.78;;;18.62;77.34
18819;BME280;9537;45.594;9.294;2023-05-07T04:13:12;99725.44;;;18.59;77.94
18819;BME280;9537;45.594;9.294;2023-05-07T04:14:14;99722.31;;;18.62;76.84
18819;BME280;9537;45.594;9.294;2023-05-07T04:15:17;99723.38;;;18.61;76.69
18819;BME280;9537;45.594;9.294;2023-05-07T04:16:18;99719.66;;;18.62;76.62
18819;BME280;9537;45.594;9.294;2023-05-07T04:17:20;99718.63;;;18.63;76.73
18819;BME280;9537;45.594;9.294;2023-05-07T04:18:21;99712.69;;;18.61;76.26
18819;BME280;9537;45.594;9.294;2023-05-07T04:19:23;99708.22;;;18.55;77.09
18819;BME280;9537;45.594;9.294;2023-05-07T04:20:24;99708.78;;;18.57;77.45
18819;BME280;9537;45.594;9.294;2023-05-07T04:21:26;99702.63;;;18.56;78.07
18819;BME280;9537;45.594;9.294;2023-05-07T04:22:27;99700.66;;;18.52;78.84
18819;BME280;9537;45.594;9.294;2023-05-07T04:23:29;99696.31;;;18.51;79.01
18819;BME280;9537;45.594;9.294;2023-05-07T04:24:31;99689.94;;;18.52;79.26
18819;BME280;9537;45.594;9.294;2023-05-07T04:25:34;99695.31;;;18.52;79.02
18819;BME280;9537;45.594;9.294;2023-05-07T04:26:35;99688.75;;;18.48;78.29
18819;BME280;9537;45.594;9.294;2023-05-07T04:27:37;99677.69;;;18.44;78.39
18819;BME280;9537;45.594;9.294;2023-05-07T04:28:38;99677.59;;;18.51;78.17
18819;BME280;9537;45.594;9.294;2023-05-07T04:29:42;99673.31;;;18.50;78.43
18819;BME280;9537;45.594;9.294;2023-05-07T04:30:47;99668.16;;;18.48;78.48
18819;BME280;9537;45.594;9.294;2023-05-07T04:31:50;99666.75;;;18.45;78.73
18819;BME280;9537;45.594;9.294;2023-05-07T04:32:51;99661.41;;;18.45;78.97
18819;BME280;9537;45.594;9.294;2023-05-07T04:33:54;99662.00;;;18.48;78.87
18819;BME280;9537;45.594;9.294;2023-05-07T04:34:55;99656.44;;;18.49;78.71
18819;BME280;9537;45.594;9.294;2023-05-07T04:35:57;99656.81;;;18.53;77.80
18819;BME280;9537;45.594;9.294;2023-05-07T04:37:03;99648.41;;;18.49;77.87
18819;BME280;9537;45.594;9.294;2023-05-07T04:38:05;99639.00;;;18.46;78.39
18819;BME280;9537;45.594;9.294;2023-05-07T04:39:06;99639.44;;;18.43;78.42
18819;BME280;9537;45.594;9.294;2023-05-07T04:40:09;99637.44;;;18.39;78.76
18819;BME280;9537;45.594;9.294;2023-05-07T04:41:12;99637.06;;;18.35;79.17
18819;BME280;9537;45.594;9.294;2023-05-07T04:42:15;99644.47;;;18.33;79.32
18819;BME280;9537;45.594;9.294;2023-05-07T04:43:16;99626.38;;;18.35;79.29
18819;BME280;9537;45.594;9.294;2023-05-07T04:44:18;99624.28;;;18.37;78.99
18819;BME280;9537;45.594;9.294;2023-05-07T04:45:21;99619.59;;;18.33;79.35
18819;BME280;9537;45.594;9.294;2023-05-07T04:46:24;99628.91;;;18.30;79.39
18819;BME280;9537;45.594;9.294;2023-05-07T04:47:25;99626.22;;;18.30;79.54
18819;BME280;9537;45.594;9.294;2023-05-07T04:48:28;99635.50;;;18.28;79.30
18819;BME280;9537;45.594;9.294;2023-05-07T04:49:30;99636.91;;;18.30;79.50
18819;BME280;9537;45.594;9.294;2023-05-07T04:50:32;99642.06;;;18.32;79.42
18819;BME280;9537;45.594;9.294;2023-05-07T04:51:33;99641.44;;;18.30;79.53
18819;BME280;9537;45.594;9.294;2023-05-07T04:52:35;99642.91;;;18.26;79.53
18819;BME280;9537;45.594;9.294;2023-05-07T04:53:37;99640.47;;;18.24;79.45
18819;BME280;9537;45.594;9.294;2023-05-07T04:54:39;99651.63;;;18.21;80.11
18819;BME280;9537;45.594;9.294;2023-05-07T04:55:40;99647.91;;;18.22;80.07
18819;BME280;9537;45.594;9.294;2023-05-07T04:56:42;99644.22;;;18.23;80.79
18819;BME280;9537;45.594;9.294;2023-05-07T04:57:45;99642.91;;;18.26;81.10
18819;BME280;9537;45.594;9.294;2023-05-07T04:58:46;99632.22;;;18.26;81.02
18819;BME280;9537;45.594;9.294;2023-05-07T04:59:48;99632.22;;;18.26;81.15
18819;BME280;9537;45.594;9.294;2023-05-07T05:00:50;99635.34;;;18.22;81.14
18819;BME280;9537;45.594;9.294;2023-05-07T05:01:52;99633.72;;;18.21;80.96
18819;BME280;9537;45.594;9.294;2023-05-07T05:02:54;99630.84;;;18.23;80.77
18819;BME280;9537;45.594;9.294;2023-05-07T05:03:56;99630.84;;;18.23;80.79
18819;BME280;9537;45.594;9.294;2023-05-07T05:04:57;99627.31;;;18.22;80.73
18819;BME280;9537;45.594;9.294;2023-05-07T05:05:59;99622.59;;;18.24;80.63
18819;BME280;9537;45.594;9.294;2023-05-07T05:07:00;99619.47;;;18.28;80.38
18819;BME280;9537;45.594;9.294;2023-05-07T05:08:04;99621.47;;;18.32;80.59
18819;BME280;9537;45.594;9.294;2023-05-07T05:09:06;99626.00;;;18.32;80.94
18819;BME280;9537;45.594;9.294;2023-05-07T05:10:09;99632.16;;;18.32;81.17
18819;BME280;9537;45.594;9.294;2023-05-07T05:11:10;99636.09;;;18.30;81.59
18819;BME280;9537;45.594;9.294;2023-05-07T05:12:12;99633.19;;;18.31;81.37
18819;BME280;9537;45.594;9.294;2023-05-07T05:13:13;99634.25;;;18.30;81.45
18819;BME280;9537;45.594;9.294;2023-05-07T05:14:16;99647.00;;;18.28;81.09
18819;BME280;9537;45.594;9.294;2023-05-07T05:15:17;99644.78;;;18.25;81.80
18819;BME280;9537;45.594;9.294;2023-05-07T05:16:20;99645.22;;;18.22;82.65
18819;BME280;9537;45.594;9.294;2023-05-07T05:17:21;99656.81;;;18.16;82.71
18819;BME280;9537;45.594;9.294;2023-05-07T05:18:23;99659.72;;;18.14;82.90
18819;BME280;9537;45.594;9.294;2023-05-07T05:19:24;99663.38;;;18.20;82.39
18819;BME280;9537;45.594;9.294;2023-05-07T05:20:27;99666.16;;;18.25;81.94
18819;BME280;9537;45.594;9.294;2023-05-07T05:21:28;99665.59;;;18.23;81.87
18819;BME280;9537;45.594;9.294;2023-05-07T05:22:29;99662.69;;;18.24;81.80
18819;BME280;9537;45.594;9.294;2023-05-07T05:23:32;99675.25;;;18.24;81.66
18819;BME280;9537;45.594;9.294;2023-05-07T05:24:34;99682.28;;;18.18;81.72
18819;BME280;9537;45.594;9.294;2023-05-07T05:25:34;99689.06;;;18.21;81.35
18819;BME280;9537;45.594;9.294;2023-05-07T05:26:38;99688.00;;;18.22;80.85
18819;BME280;9537;45.594;9.294;2023-05-07T05:27:39;99682.81;;;18.27;80.25
18819;BME280;9537;45.594;9.294;2023-05-07T05:28:41;99684.88;;;18.25;80.02
18819;BME280;9537;45.594;9.294;2023-05-07T05:29:42;99688.25;;;18.20;80.54
18819;BME280;9537;45.594;9.294;2023-05-07T05:30:44;99687.63;;;18.18;80.79
18819;BME280;9537;45.594;9.294;2023-05-07T05:31:48;99688.88;;;18.16;81.54
18819;BME280;9537;45.594;9.294;2023-05-07T05:32:50;99686.22;;;18.16;80.78